createdAt,value
2018-12-17T00:01:15.257Z,1019.13
2018-12-17T00:02:42.175Z,1019.13
2018-12-17T00:04:09.218Z,1019.14
2018-12-17T00:05:41.645Z,1019.17
2018-12-17T00:07:03.198Z,1019.15
2018-12-17T00:08:32.041Z,1019.17
2018-12-17T00:09:57.391Z,1019.20
2018-12-17T00:11:24.364Z,1019.24
2018-12-17T00:12:51.326Z,1019.26
2018-12-17T00:14:18.348Z,1019.25
2018-12-17T00:15:45.542Z,1019.28
2018-12-17T00:17:12.490Z,1019.29
2018-12-17T00:18:39.636Z,1019.30
2018-12-17T00:20:06.621Z,1019.29
2018-12-17T00:21:33.698Z,1019.27
2018-12-17T00:23:00.456Z,1019.26
2018-12-17T00:24:27.545Z,1019.27
2018-12-17T00:25:54.723Z,1019.28
2018-12-17T00:27:21.666Z,1019.30
2018-12-17T00:28:48.498Z,1019.29
2018-12-17T00:30:15.602Z,1019.30
2018-12-17T00:31:42.433Z,1019.30
2018-12-17T00:33:09.434Z,1019.30
2018-12-17T00:34:36.403Z,1019.26
2018-12-17T00:36:03.661Z,1019.25
2018-12-17T00:37:30.675Z,1019.22
2018-12-17T00:38:57.854Z,1019.20
2018-12-17T00:40:24.714Z,1019.19
2018-12-17T00:41:51.579Z,1019.15
2018-12-17T00:43:18.580Z,1019.17
2018-12-17T00:44:45.627Z,1019.15
2018-12-17T00:46:12.957Z,1019.13
2018-12-17T00:47:40.106Z,1019.13
2018-12-17T00:49:07.275Z,1019.12
2018-12-17T00:50:34.441Z,1019.13
2018-12-17T00:52:01.331Z,1019.15
2018-12-17T00:53:28.294Z,1019.17
2018-12-17T00:54:55.171Z,1019.20
2018-12-17T00:56:22.249Z,1019.21
2018-12-17T00:57:49.038Z,1019.22
2018-12-17T00:59:16.120Z,1019.24
2018-12-17T01:00:43.262Z,1019.28
2018-12-17T01:02:10.106Z,1019.33
2018-12-17T01:03:37.277Z,1019.35
2018-12-17T01:05:04.287Z,1019.34
2018-12-17T01:06:31.530Z,1019.35
2018-12-17T01:07:58.397Z,1019.33
2018-12-17T01:09:25.474Z,1019.33
2018-12-17T01:10:52.582Z,1019.36
2018-12-17T01:12:19.508Z,1019.37
2018-12-17T01:13:46.518Z,1019.37
2018-12-17T01:15:13.453Z,1019.39
2018-12-17T01:16:40.492Z,1019.41
2018-12-17T01:18:07.489Z,1019.44
2018-12-17T01:19:34.428Z,1019.47
2018-12-17T01:21:01.522Z,1019.48
2018-12-17T01:22:28.554Z,1019.47
2018-12-17T01:23:55.636Z,1019.47
2018-12-17T01:25:22.825Z,1019.47
2018-12-17T01:26:50.032Z,1019.50
2018-12-17T01:28:22.056Z,1019.50
2018-12-17T01:29:44.208Z,1019.52
2018-12-17T01:31:11.414Z,1019.53
2018-12-17T01:32:38.209Z,1019.53
2018-12-17T01:34:05.166Z,1019.53
2018-12-17T01:35:32.228Z,1019.54
2018-12-17T01:36:58.974Z,1019.53
2018-12-17T01:38:26.053Z,1019.53
2018-12-17T01:39:53.068Z,1019.55
2018-12-17T01:41:20.161Z,1019.54
2018-12-17T01:42:46.928Z,1019.53
2018-12-17T01:44:14.006Z,1019.55
2018-12-17T01:45:41.013Z,1019.55
2018-12-17T01:47:08.073Z,1019.53
2018-12-17T01:48:35.221Z,1019.55
2018-12-17T01:50:02.123Z,1019.58
2018-12-17T01:51:29.234Z,1019.58
2018-12-17T01:52:56.189Z,1019.59
2018-12-17T01:54:23.328Z,1019.57
2018-12-17T01:55:50.298Z,1019.55
2018-12-17T01:57:17.545Z,1019.56
2018-12-17T01:58:44.388Z,1019.54
2018-12-17T02:00:11.517Z,1019.51
2018-12-17T02:01:41.494Z,1019.49
2018-12-17T02:03:05.544Z,1019.48
2018-12-17T02:04:32.354Z,1019.49
2018-12-17T02:05:59.560Z,1019.55
2018-12-17T02:07:26.433Z,1019.55
2018-12-17T02:08:53.522Z,1019.56
2018-12-17T02:10:20.690Z,1019.57
2018-12-17T02:11:47.703Z,1019.59
2018-12-17T02:13:14.803Z,1019.60
2018-12-17T02:14:41.957Z,1019.62
2018-12-17T02:16:08.944Z,1019.62
2018-12-17T02:17:35.959Z,1019.63
2018-12-17T02:19:03.082Z,1019.65
2018-12-17T02:20:29.909Z,1019.64
2018-12-17T02:21:56.964Z,1019.62
2018-12-17T02:23:24.109Z,1019.60
2018-12-17T02:24:51.095Z,1019.59
2018-12-17T02:26:18.349Z,1019.60
2018-12-17T02:27:45.484Z,1019.64
2018-12-17T02:29:12.545Z,1019.63
2018-12-17T02:30:39.565Z,1019.63
2018-12-17T02:32:06.513Z,1019.68
2018-12-17T02:33:33.452Z,1019.71
2018-12-17T02:35:00.255Z,1019.73
2018-12-17T02:36:27.329Z,1019.76
2018-12-17T02:37:54.482Z,1019.74
2018-12-17T02:39:21.578Z,1019.77
2018-12-17T02:40:48.711Z,1019.75
2018-12-17T02:42:15.715Z,1019.78
2018-12-17T02:43:42.701Z,1019.79
2018-12-17T02:45:09.819Z,1019.80
2018-12-17T02:46:36.952Z,1019.79
2018-12-17T02:48:03.892Z,1019.78
2018-12-17T02:49:30.813Z,1019.78
2018-12-17T02:50:58.022Z,1019.75
2018-12-17T02:52:24.878Z,1019.75
2018-12-17T02:53:51.780Z,1019.76
2018-12-17T02:55:18.943Z,1019.76
2018-12-17T02:56:46.141Z,1019.75
2018-12-17T02:58:13.085Z,1019.75
2018-12-17T02:59:40.142Z,1019.79
2018-12-17T03:01:07.129Z,1019.84
2018-12-17T03:02:34.113Z,1019.87
2018-12-17T03:04:01.283Z,1019.86
2018-12-17T03:05:28.434Z,1019.85
2018-12-17T03:06:55.497Z,1019.89
2018-12-17T03:08:22.382Z,1019.90
2018-12-17T03:09:49.326Z,1019.93
2018-12-17T03:11:16.498Z,1019.93
2018-12-17T03:12:43.503Z,1019.92
2018-12-17T03:14:10.473Z,1019.91
2018-12-17T03:15:37.574Z,1019.92
2018-12-17T03:17:04.876Z,1019.93
2018-12-17T03:18:31.925Z,1019.91
2018-12-17T03:19:58.992Z,1019.91
2018-12-17T03:21:25.977Z,1019.93
2018-12-17T03:22:53.203Z,1019.97
2018-12-17T03:24:20.102Z,1020.00
2018-12-17T03:25:47.029Z,1019.99
2018-12-17T03:27:14.168Z,1019.99
2018-12-17T03:28:41.127Z,1019.99
2018-12-17T03:30:08.020Z,1020.00
2018-12-17T03:31:35.050Z,1020.02
2018-12-17T03:33:02.086Z,1020.01
2018-12-17T03:34:29.035Z,1020.01
2018-12-17T03:35:55.876Z,1019.99
2018-12-17T03:37:22.799Z,1020.00
2018-12-17T03:38:49.845Z,1020.01
2018-12-17T03:40:16.837Z,1020.00
2018-12-17T03:41:43.908Z,1020.00
2018-12-17T03:43:10.920Z,1020.01
2018-12-17T03:44:38.210Z,1020.04
2018-12-17T03:46:05.262Z,1020.07
2018-12-17T03:47:32.091Z,1020.06
2018-12-17T03:48:59.348Z,1020.06
2018-12-17T03:50:26.363Z,1020.06
2018-12-17T03:51:53.161Z,1020.08
2018-12-17T03:53:20.051Z,1020.07
2018-12-17T03:54:47.218Z,1020.06
2018-12-17T03:56:14.197Z,1020.09
2018-12-17T03:57:41.317Z,1020.09
2018-12-17T03:59:08.304Z,1020.09
2018-12-17T04:11:05.627Z,1019.99
2018-12-17T04:12:32.176Z,1020.02
2018-12-17T04:13:59.055Z,1020.04
2018-12-17T04:15:26.078Z,1020.05
2018-12-17T04:16:53.031Z,1020.08
2018-12-17T04:18:20.196Z,1020.09
2018-12-17T04:19:47.041Z,1020.11
2018-12-17T04:21:13.960Z,1020.13
2018-12-17T04:22:41.093Z,1020.13
2018-12-17T04:34:48.158Z,1020.25
2018-12-17T04:36:14.564Z,1020.24
2018-12-17T04:37:41.580Z,1020.24
2018-12-17T04:39:08.505Z,1020.25
2018-12-17T04:40:35.368Z,1020.25
2018-12-17T04:42:02.708Z,1020.27
2018-12-17T04:43:29.742Z,1020.28
2018-12-17T04:44:56.670Z,1020.28
2018-12-17T04:46:23.912Z,1020.31
2018-12-17T04:47:50.819Z,1020.32
2018-12-17T04:49:17.741Z,1020.36
2018-12-17T04:50:44.901Z,1020.40
2018-12-17T04:52:11.950Z,1020.41
2018-12-17T05:05:56.071Z,1020.50
2018-12-17T05:07:22.226Z,1020.48
2018-12-17T05:08:49.069Z,1020.49
2018-12-17T05:10:16.286Z,1020.53
2018-12-17T05:11:43.338Z,1020.55
2018-12-17T05:13:10.495Z,1020.54
2018-12-17T05:14:37.698Z,1020.57
2018-12-17T05:16:04.679Z,1020.62
2018-12-17T05:17:31.541Z,1020.63
2018-12-17T05:28:49.918Z,1020.71
2018-12-17T05:30:16.289Z,1020.74
2018-12-17T05:31:42.926Z,1020.75
2018-12-17T05:33:10.050Z,1020.78
2018-12-17T05:34:37.295Z,1020.81
2018-12-17T05:36:04.363Z,1020.84
2018-12-17T05:37:31.291Z,1020.89
2018-12-17T05:38:58.371Z,1020.93
2018-12-17T05:40:25.406Z,1020.96
2018-12-17T05:41:52.652Z,1020.96
2018-12-17T05:43:19.841Z,1020.98
2018-12-17T05:44:46.906Z,1020.97
2018-12-17T05:46:14.058Z,1020.99
2018-12-17T05:47:41.268Z,1021.00
2018-12-17T05:49:08.289Z,1021.05
2018-12-17T05:50:35.273Z,1021.09
2018-12-17T05:52:02.175Z,1021.12
2018-12-17T05:53:29.235Z,1021.13
2018-12-17T06:11:34.746Z,1021.23
2018-12-17T06:13:01.190Z,1021.27
2018-12-17T06:14:28.087Z,1021.29
2018-12-17T06:15:55.047Z,1021.31
2018-12-17T06:17:22.014Z,1021.29
2018-12-17T06:18:49.071Z,1021.27
2018-12-17T06:20:16.209Z,1021.27
2018-12-17T06:21:43.204Z,1021.30
2018-12-17T06:23:10.255Z,1021.35
2018-12-17T06:24:37.579Z,1021.39
2018-12-17T06:26:04.666Z,1021.39
2018-12-17T06:27:36.699Z,1021.41
2018-12-17T06:28:58.769Z,1021.44
2018-12-17T06:48:31.742Z,1021.66
2018-12-17T06:49:58.278Z,1021.70
2018-12-17T06:51:25.002Z,1021.75
2018-12-17T06:52:52.199Z,1021.77
2018-12-17T06:54:38.509Z,1021.76
2018-12-17T07:19:11.379Z,1022.14
2018-12-17T07:20:37.760Z,1022.13
2018-12-17T07:22:04.599Z,1022.16
2018-12-17T07:23:31.803Z,1022.23
2018-12-17T07:24:58.908Z,1022.25
2018-12-17T07:26:26.013Z,1022.23
2018-12-17T07:27:53.116Z,1022.24
2018-12-17T07:29:20.345Z,1022.25
2018-12-17T08:55:56.119Z,1022.94
2018-12-17T08:58:30.415Z,1022.94
2018-12-17T09:00:10.953Z,1022.98
2018-12-17T09:51:28.363Z,1023.27
2018-12-17T09:52:55.016Z,1023.28
2018-12-17T09:54:22.052Z,1023.27
